createdAt,value
2023-05-12T00:02:29.208Z,101330.91
2023-05-12T00:07:32.536Z,101328.66
2023-05-12T00:12:36.846Z,101329.81
2023-05-12T00:17:39.741Z,101331.31
2023-05-12T00:22:42.631Z,101338.09
2023-05-12T00:27:46.752Z,101337.91
2023-05-12T00:32:49.710Z,101339.91
2023-05-12T00:37:52.612Z,101335.28
2023-05-12T00:42:56.866Z,101339.75
2023-05-12T00:47:59.881Z,101341.84
2023-05-12T00:53:03.101Z,101347.63
2023-05-12T00:58:07.547Z,101348.91
2023-05-12T01:03:11.739Z,101347.34
2023-05-12T01:08:15.047Z,101350.53
2023-05-12T01:13:19.517Z,101352.13
2023-05-12T01:18:25.325Z,101354.41
2023-05-12T01:23:34.914Z,101359.97
2023-05-12T01:28:41.160Z,101367.47
2023-05-12T01:33:44.744Z,101368.44
2023-05-12T01:38:47.849Z,101358.56
2023-05-12T01:43:52.116Z,101364.44
2023-05-12T01:48:54.943Z,101362.84
2023-05-12T01:53:57.886Z,101369.88
2023-05-12T01:59:04.653Z,101378.13
2023-05-12T02:04:09.184Z,101379.97
2023-05-12T02:09:13.343Z,101380.75
2023-05-12T02:14:17.548Z,101377.25
2023-05-12T02:19:20.770Z,101390.28
2023-05-12T02:24:23.741Z,101390.88
2023-05-12T02:29:27.911Z,101394.69
2023-05-12T02:34:30.937Z,101395.25
2023-05-12T02:39:34.226Z,101401.47
2023-05-12T02:44:38.561Z,101394.75
2023-05-12T02:49:41.662Z,101401.06
2023-05-12T02:54:44.678Z,101401.00
2023-05-12T02:59:48.905Z,101394.31
2023-05-12T03:04:51.730Z,101390.06
2023-05-12T03:09:54.605Z,101397.44
2023-05-12T03:15:00.425Z,101399.13
2023-05-12T03:20:03.503Z,101403.97
2023-05-12T03:25:08.187Z,101400.22
2023-05-12T03:30:13.717Z,101404.31
2023-05-12T03:35:16.669Z,101406.94
2023-05-12T03:40:19.914Z,101402.31
2023-05-12T03:45:24.788Z,101409.41
2023-05-12T03:50:27.579Z,101411.50
2023-05-12T03:55:30.475Z,101412.47
2023-05-12T04:00:35.237Z,101417.81
2023-05-12T04:05:39.523Z,101409.56
2023-05-12T04:10:43.323Z,101418.47
2023-05-12T04:15:47.459Z,101428.50
2023-05-12T04:20:50.234Z,101431.03
2023-05-12T04:25:53.623Z,101435.81
2023-05-12T04:30:57.859Z,101434.47
2023-05-12T04:36:01.417Z,101443.22
2023-05-12T04:41:04.557Z,101449.53
2023-05-12T04:46:09.077Z,101451.69
2023-05-12T04:51:12.101Z,101459.03
2023-05-12T04:56:15.025Z,101457.22
2023-05-12T05:01:20.163Z,101471.88
2023-05-12T05:06:23.216Z,101479.44
2023-05-12T05:11:26.896Z,101486.91
2023-05-12T05:16:31.330Z,101489.47
2023-05-12T05:21:34.546Z,101493.13
2023-05-12T05:26:37.561Z,101491.63
2023-05-12T05:31:41.756Z,101500.38
2023-05-12T05:36:44.598Z,101499.84
2023-05-12T05:41:47.562Z,101514.03
2023-05-12T05:46:52.147Z,101512.59
2023-05-12T05:51:56.192Z,101508.50
2023-05-12T05:57:02.074Z,101522.59
2023-05-12T06:02:07.835Z,101525.47
2023-05-12T06:07:10.753Z,101522.69
2023-05-12T06:12:13.617Z,101540.22
2023-05-12T06:17:18.081Z,101530.69
2023-05-12T06:22:21.270Z,101541.59
2023-05-12T06:27:24.341Z,101544.13
2023-05-12T06:32:28.511Z,101551.13
2023-05-12T06:37:31.334Z,101547.53
2023-05-12T06:42:34.142Z,101557.81
2023-05-12T06:47:45.656Z,101563.53
2023-05-12T06:52:48.504Z,101556.97
2023-05-12T06:57:55.715Z,101563.94
2023-05-12T07:03:00.028Z,101566.03
2023-05-12T07:08:02.851Z,101569.38
2023-05-12T07:13:05.726Z,101568.31
2023-05-12T07:18:10.076Z,101576.38
2023-05-12T07:23:13.052Z,101579.34
2023-05-12T07:28:16.001Z,101569.25
2023-05-12T07:33:20.192Z,101578.09
2023-05-12T07:38:23.086Z,101576.56
2023-05-12T07:43:25.973Z,101580.16
2023-05-12T07:48:30.607Z,101585.97
2023-05-12T07:53:33.493Z,101575.06
2023-05-12T07:58:36.524Z,101585.66
2023-05-12T08:03:40.722Z,101587.16
2023-05-12T08:08:43.727Z,101581.31
2023-05-12T08:13:46.594Z,101587.19
2023-05-12T08:18:51.047Z,101592.66
2023-05-12T08:23:53.844Z,101594.84
2023-05-12T08:28:56.652Z,101599.25
2023-05-12T08:34:09.642Z,101590.41
2023-05-12T08:39:12.955Z,101592.53
2023-05-12T08:44:17.031Z,101582.19
2023-05-12T08:49:26.168Z,101592.06
2023-05-12T08:54:29.811Z,101596.88
2023-05-12T08:59:35.655Z,101586.09
2023-05-12T09:04:39.815Z,101584.13
2023-05-12T09:09:45.995Z,101593.09
2023-05-12T09:14:59.631Z,101596.22
2023-05-12T09:20:04.253Z,101591.59
2023-05-12T09:25:17.255Z,101587.94
2023-05-12T09:30:30.654Z,101581.09
2023-05-12T09:35:39.270Z,101585.09
2023-05-12T09:40:43.064Z,101587.19
2023-05-12T09:45:50.081Z,101579.97
2023-05-12T09:50:54.291Z,101583.59
2023-05-12T09:55:57.058Z,101588.22
2023-05-12T10:01:20.924Z,101584.31
2023-05-12T10:06:28.222Z,101581.69
2023-05-12T10:11:31.439Z,101581.81
2023-05-12T10:16:34.772Z,101575.63
2023-05-12T10:21:39.646Z,101579.47
2023-05-12T10:26:43.737Z,101578.53
2023-05-12T10:31:47.811Z,101571.09
2023-05-12T10:36:54.103Z,101572.59
2023-05-12T10:42:02.364Z,101571.81
2023-05-12T10:47:14.702Z,101565.56
2023-05-12T10:52:21.915Z,101575.75
2023-05-12T10:57:24.878Z,101574.25
2023-05-12T11:02:32.051Z,101570.47
2023-05-12T11:07:37.528Z,101580.09
2023-05-12T11:12:40.780Z,101564.44
2023-05-12T11:17:43.607Z,101572.38
2023-05-12T11:22:48.020Z,101579.56
2023-05-12T11:27:51.413Z,101567.72
2023-05-12T11:33:04.374Z,101570.69
2023-05-12T11:38:17.815Z,101577.78
2023-05-12T11:43:22.235Z,101573.41
2023-05-12T11:48:35.480Z,101579.16
2023-05-12T11:53:42.547Z,101584.97
2023-05-12T11:58:53.635Z,101575.66
2023-05-12T12:03:57.067Z,101584.13
2023-05-12T12:09:02.059Z,101582.50
2023-05-12T12:14:05.040Z,101577.84
2023-05-12T12:19:08.780Z,101581.31
2023-05-12T12:24:12.950Z,101587.03
2023-05-12T12:29:15.707Z,101592.34
2023-05-12T12:34:19.179Z,101580.25
2023-05-12T12:39:23.327Z,101572.41
2023-05-12T12:44:26.547Z,101595.97
2023-05-12T12:49:29.489Z,101583.53
2023-05-12T12:54:33.710Z,101586.75
2023-05-12T12:59:36.469Z,101573.09
2023-05-12T13:04:39.330Z,101569.81
2023-05-12T13:09:43.395Z,101574.69
2023-05-12T13:14:46.199Z,101566.25
2023-05-12T13:19:48.959Z,101572.53
2023-05-12T13:24:53.037Z,101573.84
2023-05-12T13:29:55.819Z,101561.09
2023-05-12T13:34:59.109Z,101567.53
2023-05-12T13:40:03.382Z,101566.56
2023-05-12T13:45:07.316Z,101563.75
2023-05-12T13:50:10.487Z,101570.53
2023-05-12T13:55:20.534Z,101571.13
2023-05-12T14:00:27.009Z,101568.03
2023-05-12T14:05:29.820Z,101567.03
2023-05-12T14:10:35.375Z,101564.63
2023-05-12T14:15:48.852Z,101557.53
2023-05-12T14:20:52.678Z,101557.06
2023-05-12T14:25:56.949Z,101558.16
2023-05-12T14:30:59.772Z,101562.59
2023-05-12T14:36:07.496Z,101560.88
2023-05-12T14:41:12.361Z,101572.88
2023-05-12T14:46:15.310Z,101556.00
2023-05-12T14:51:18.220Z,101564.63
2023-05-12T14:56:22.325Z,101558.94
2023-05-12T15:01:25.092Z,101562.34
2023-05-12T15:06:27.838Z,101565.25
2023-05-12T15:11:31.925Z,101577.63
2023-05-12T15:16:34.673Z,101577.47
2023-05-12T15:21:37.443Z,101572.84
2023-05-12T15:26:41.751Z,101577.97
2023-05-12T15:31:45.128Z,101564.41
2023-05-12T15:36:48.833Z,101572.75
2023-05-12T15:41:53.210Z,101568.47
2023-05-12T15:46:56.469Z,101566.69
2023-05-12T15:51:59.370Z,101575.31
2023-05-12T15:57:04.000Z,101579.41
2023-05-12T16:02:08.280Z,101583.44
2023-05-12T16:07:11.230Z,101578.81
2023-05-12T16:12:15.540Z,101574.00
2023-05-12T16:17:18.396Z,101577.34
2023-05-12T16:22:21.213Z,101580.84
2023-05-12T16:27:25.556Z,101571.75
2023-05-12T16:32:28.519Z,101563.28
2023-05-12T16:37:32.371Z,101570.31
2023-05-12T16:42:36.577Z,101564.69
2023-05-12T16:47:39.367Z,101568.59
2023-05-12T16:52:42.204Z,101578.22
2023-05-12T16:57:46.271Z,101577.16
2023-05-12T17:02:49.153Z,101579.06
2023-05-12T17:07:52.358Z,101580.91
2023-05-12T17:12:56.566Z,101571.41
2023-05-12T17:17:59.514Z,101583.31
2023-05-12T17:23:02.601Z,101579.34
2023-05-12T17:28:07.049Z,101596.84
2023-05-12T17:33:09.873Z,101589.59
2023-05-12T17:38:12.604Z,101593.13
2023-05-12T17:43:16.686Z,101599.25
2023-05-12T17:48:19.665Z,101605.28
2023-05-12T17:53:22.416Z,101616.94
2023-05-12T17:58:26.682Z,101626.69
2023-05-12T18:03:29.965Z,101622.72
2023-05-12T18:08:32.809Z,101626.47
2023-05-12T18:13:37.075Z,101630.16
2023-05-12T18:18:39.912Z,101623.25
2023-05-12T18:23:42.771Z,101630.97
2023-05-12T18:28:46.955Z,101630.50
2023-05-12T18:33:50.894Z,101638.03
2023-05-12T18:38:53.915Z,101637.72
2023-05-12T18:43:58.067Z,101639.66
2023-05-12T18:49:00.944Z,101645.25
2023-05-12T18:54:04.308Z,101647.84
2023-05-12T18:59:08.410Z,101660.38
2023-05-12T19:04:11.811Z,101665.06
2023-05-12T19:09:14.703Z,101662.69
2023-05-12T19:14:19.786Z,101674.28
2023-05-12T19:19:22.757Z,101671.66
2023-05-12T19:24:26.840Z,101672.53
2023-05-12T19:30:05.561Z,101684.38
2023-05-12T19:35:12.425Z,101680.28
2023-05-12T19:40:15.350Z,101687.03
2023-05-12T19:45:19.877Z,101698.72
2023-05-12T19:50:22.849Z,101690.75
2023-05-12T19:55:25.797Z,101693.03
2023-05-12T20:00:30.025Z,101691.25
2023-05-12T20:05:32.878Z,101703.78
2023-05-12T20:10:35.728Z,101703.31
2023-05-12T20:15:39.968Z,101708.19
2023-05-12T20:20:43.244Z,101705.31
2023-05-12T20:25:46.666Z,101711.53
2023-05-12T20:30:51.713Z,101716.59
2023-05-12T20:35:54.667Z,101721.06
2023-05-12T20:40:57.506Z,101728.06
2023-05-12T20:46:04.652Z,101733.69
2023-05-12T20:51:13.899Z,101741.13
2023-05-12T20:56:16.857Z,101742.00
2023-05-12T21:01:21.050Z,101746.00
2023-05-12T21:06:23.930Z,101741.13
2023-05-12T21:11:26.909Z,101742.88
2023-05-12T21:16:31.022Z,101756.72
2023-05-12T21:21:33.853Z,101762.47
2023-05-12T21:26:36.627Z,101756.75
2023-05-12T21:31:40.687Z,101752.97
2023-05-12T21:36:43.564Z,101754.22
2023-05-12T21:41:46.315Z,101756.41
2023-05-12T21:46:50.500Z,101756.69
2023-05-12T21:51:55.820Z,101758.34
2023-05-12T21:56:58.755Z,101755.25
2023-05-12T22:02:02.869Z,101758.84
2023-05-12T22:07:06.041Z,101765.41
2023-05-12T22:12:13.501Z,101762.66
2023-05-12T22:17:17.683Z,101773.84
2023-05-12T22:22:20.420Z,101770.97
2023-05-12T22:27:23.211Z,101773.38
2023-05-12T22:32:27.471Z,101775.28
2023-05-12T22:37:30.378Z,101779.13
2023-05-12T22:42:33.149Z,101783.78
2023-05-12T22:47:37.476Z,101777.09
2023-05-12T22:52:40.332Z,101782.97
2023-05-12T22:57:45.321Z,101789.47
2023-05-12T23:02:49.478Z,101787.56
2023-05-12T23:07:52.208Z,101786.69
2023-05-12T23:12:55.141Z,101784.88
2023-05-12T23:17:59.281Z,101782.16
2023-05-12T23:23:02.159Z,101782.53
2023-05-12T23:28:05.080Z,101786.97
2023-05-12T23:33:09.244Z,101783.53
2023-05-12T23:38:12.042Z,101786.69
2023-05-12T23:43:15.154Z,101784.44
2023-05-12T23:48:19.347Z,101784.44
2023-05-12T23:53:22.120Z,101787.41
2023-05-12T23:58:24.880Z,101788.84
